Time;durP1;ratioP1;P1;durP2;ratioP2;P2;SDS_P1;SDS_P2;PMS_P1;PMS_P2;Temp;Humidity;BMP_temperature;BMP_pressure;BME280_temperature;BME280_humidity;BME280_pressure;Samples;Min_cycle;Max_cycle;Signal;HPM_P1;HPM_P2
2023/02/23 00:02:42;;;;;;;18.27;9.05;;;;;;;;;;10385946;28;20487;-79
2023/02/23 00:07:46;;;;;;;16.90;8.80;;;;;;;;;;10397015;28;20486;-78
2023/02/23 00:12:50;;;;;;;20.98;9.30;;;;;;;;;;10403392;28;20033;-75
2023/02/23 00:17:50;;;;;;;15.88;7.97;;;;;;;;;;10356011;28;20034;-76
2023/02/23 00:22:54;;;;;;;13.87;7.17;;;;;;;;;;10364916;28;20025;-76
2023/02/23 00:27:55;;;;;;;13.27;7.38;;;;;;;;;;10364715;28;20352;-79
2023/02/23 00:32:56;;;;;;;13.02;8.23;;;;;;;;;;10342264;28;20014;-79
2023/02/23 00:37:56;;;;;;;12.30;7.75;;;;;;;;;;10358376;28;20083;-79
2023/02/23 00:42:57;;;;;;;13.93;7.25;;;;;;;;;;10350116;28;20045;-75
2023/02/23 00:48:02;;;;;;;13.13;7.53;;;;;;;;;;10398965;28;20021;-76
2023/02/23 00:53:03;;;;;;;16.75;8.73;;;;;;;;;;10387437;28;20025;-73
2023/02/23 00:58:04;;;;;;;16.00;7.50;;;;;;;;;;10346157;28;20033;-72
2023/02/23 01:03:05;;;;;;;15.05;7.35;;;;;;;;;;10385966;28;20538;-80
2023/02/23 01:08:08;;;;;;;14.98;8.23;;;;;;;;;;10417287;28;20137;-75
2023/02/23 01:13:09;;;;;;;16.73;8.45;;;;;;;;;;10382720;28;20458;-75
2023/02/23 01:18:10;;;;;;;16.77;9.00;;;;;;;;;;10383086;28;20034;-78
2023/02/23 01:23:12;;;;;;;17.13;8.95;;;;;;;;;;10383017;28;20422;-72
2023/02/23 01:28:12;;;;;;;14.43;8.30;;;;;;;;;;10382382;28;20057;-74
2023/02/23 01:33:12;;;;;;;16.42;8.52;;;;;;;;;;10399649;28;20107;-75
2023/02/23 01:38:14;;;;;;;12.10;7.03;;;;;;;;;;10382136;28;20021;-72
2023/02/23 01:43:16;;;;;;;13.70;8.60;;;;;;;;;;10390080;28;20395;-77
2023/02/23 01:48:19;;;;;;;12.45;7.60;;;;;;;;;;10386994;28;20026;-79
2023/02/23 01:53:22;;;;;;;14.43;7.45;;;;;;;;;;10382687;28;20117;-75
2023/02/23 01:58:23;;;;;;;12.57;6.80;;;;;;;;;;10383512;28;20458;-74
2023/02/23 02:03:27;;;;;;;14.30;7.78;;;;;;;;;;10397190;28;20021;-73
2023/02/23 02:08:31;;;;;;;9.45;5.80;;;;;;;;;;10381566;28;20089;-74
2023/02/23 02:13:31;;;;;;;13.52;6.85;;;;;;;;;;10382256;28;20044;-74
2023/02/23 02:18:41;;;;;;;10.73;6.43;;;;;;;;;;10382442;28;20032;-76
2023/02/23 02:23:42;;;;;;;13.57;6.68;;;;;;;;;;10387659;28;20574;-77
2023/02/23 02:29:01;;;;;;;11.75;7.15;;;;;;;;;;10394458;28;20405;-79
2023/02/23 02:34:05;;;;;;;14.70;7.63;;;;;;;;;;10408339;28;20033;-79
2023/02/23 02:39:22;;;;;;;11.10;7.70;;;;;;;;;;10388589;28;20029;-77
2023/02/23 02:44:42;;;;;;;13.43;7.95;;;;;;;;;;10389344;28;20506;-73
2023/02/23 02:49:48;;;;;;;15.82;8.10;;;;;;;;;;10391477;28;20107;-80
2023/02/23 02:54:52;;;;;;;14.23;7.40;;;;;;;;;;10388439;28;20026;-79
2023/02/23 04:20:47;;;;;;;19.83;9.77;;;;;;;;;;10410179;28;20033;-79
2023/02/23 04:25:48;;;;;;;18.58;9.18;;;;;;;;;;10386505;28;20029;-78
2023/02/23 04:30:48;;;;;;;16.45;8.77;;;;;;;;;;10370607;28;20068;-77
2023/02/23 04:35:51;;;;;;;20.43;9.60;;;;;;;;;;10387681;28;20549;-80
2023/02/23 04:40:51;;;;;;;27.48;10.13;;;;;;;;;;10383935;28;20017;-74
2023/02/23 04:45:52;;;;;;;17.20;9.93;;;;;;;;;;10384293;28;20022;-78
2023/02/23 04:50:52;;;;;;;17.67;9.65;;;;;;;;;;10400830;28;20013;-74
2023/02/23 04:55:53;;;;;;;19.27;10.23;;;;;;;;;;10364839;28;20021;-76
2023/02/23 05:00:53;;;;;;;32.92;11.60;;;;;;;;;;10368173;28;20500;-78
2023/02/23 05:05:54;;;;;;;17.92;10.05;;;;;;;;;;10385181;28;20069;-77
2023/02/23 05:10:58;;;;;;;44.65;13.68;;;;;;;;;;10403081;28;20040;-81
2023/02/23 05:16:13;;;;;;;25.15;11.07;;;;;;;;;;10368849;28;20033;-78
2023/02/23 05:21:14;;;;;;;18.48;10.68;;;;;;;;;;10387250;28;20080;-76
2023/02/23 05:26:14;;;;;;;17.08;11.75;;;;;;;;;;10359065;28;20178;-79
2023/02/23 05:31:15;;;;;;;19.35;10.07;;;;;;;;;;10360536;28;20044;-78
2023/02/23 05:36:18;;;;;;;19.13;9.00;;;;;;;;;;10356484;28;20022;-77
2023/02/23 05:41:22;;;;;;;19.67;10.07;;;;;;;;;;10375856;28;20419;-77
2023/02/23 05:46:24;;;;;;;26.17;10.20;;;;;;;;;;10355784;28;20036;-74
2023/02/23 05:51:25;;;;;;;18.83;10.13;;;;;;;;;;10363990;28;20026;-82
2023/02/23 05:56:25;;;;;;;17.90;10.45;;;;;;;;;;10380649;28;20028;-80
2023/02/23 06:01:26;;;;;;;13.53;8.50;;;;;;;;;;10363804;28;20024;-74
2023/02/23 06:06:27;;;;;;;23.75;8.80;;;;;;;;;;10401865;28;20033;-77
2023/02/23 06:11:27;;;;;;;18.02;9.27;;;;;;;;;;10399743;28;20064;-73
2023/02/23 06:16:28;;;;;;;12.45;7.90;;;;;;;;;;10361793;28;20033;-83
2023/02/23 06:21:28;;;;;;;19.77;9.77;;;;;;;;;;10378115;28;20083;-81
2023/02/23 06:26:28;;;;;;;27.27;9.68;;;;;;;;;;10373202;28;20360;-76
2023/02/23 06:31:29;;;;;;;20.63;10.32;;;;;;;;;;10367067;28;20026;-78
2023/02/23 06:36:29;;;;;;;16.42;8.88;;;;;;;;;;10372148;28;20120;-81
2023/02/23 06:41:31;;;;;;;14.07;8.55;;;;;;;;;;10402197;28;20017;-78
2023/02/23 06:46:33;;;;;;;13.38;8.23;;;;;;;;;;10369504;28;20026;-80
2023/02/23 06:51:33;;;;;;;17.30;8.23;;;;;;;;;;10376882;28;20560;-78
2023/02/23 06:56:33;;;;;;;14.85;8.07;;;;;;;;;;10371353;28;20018;-78
2023/02/23 07:01:34;;;;;;;11.60;7.03;;;;;;;;;;10371762;28;20017;-80
2023/02/23 07:06:34;;;;;;;18.58;9.13;;;;;;;;;;10386424;28;20032;-72
2023/02/23 07:11:34;;;;;;;27.00;11.70;;;;;;;;;;10346704;28;20160;-80
2023/02/23 07:16:35;;;;;;;16.17;8.38;;;;;;;;;;10336869;28;20713;-81
2023/02/23 07:21:35;;;;;;;18.77;8.57;;;;;;;;;;10325080;28;20018;-79
2023/02/23 07:26:36;;;;;;;16.85;9.10;;;;;;;;;;10323915;28;20021;-77
2023/02/23 07:31:36;;;;;;;17.88;9.90;;;;;;;;;;10325131;28;20026;-79
2023/02/23 07:36:42;;;;;;;22.43;9.63;;;;;;;;;;10332692;28;20586;-85
2023/02/23 07:41:43;;;;;;;24.30;11.15;;;;;;;;;;10327160;28;20077;-78
2023/02/23 07:46:45;;;;;;;23.65;10.40;;;;;;;;;;10330565;28;20109;-77
2023/02/23 07:51:45;;;;;;;24.00;9.10;;;;;;;;;;10318532;28;20033;-79
2023/02/23 07:56:46;;;;;;;32.45;11.65;;;;;;;;;;10357752;28;20079;-79
2023/02/23 08:01:46;;;;;;;40.03;10.15;;;;;;;;;;10362743;28;20045;-81
2023/02/23 08:06:47;;;;;;;23.98;9.55;;;;;;;;;;10356214;28;20105;-80
2023/02/23 08:11:47;;;;;;;24.08;9.65;;;;;;;;;;10369136;28;20026;-80
2023/02/23 08:16:51;;;;;;;29.33;9.30;;;;;;;;;;10370396;28;20033;-81
2023/02/23 08:21:51;;;;;;;22.48;9.38;;;;;;;;;;10385332;28;20152;-74
2023/02/23 08:26:51;;;;;;;23.13;9.77;;;;;;;;;;10377171;28;20026;-80
2023/02/23 08:31:52;;;;;;;20.73;10.23;;;;;;;;;;10403988;28;20021;-76
2023/02/23 08:36:52;;;;;;;19.35;8.98;;;;;;;;;;10391361;28;20024;-82
2023/02/23 08:41:54;;;;;;;24.40;9.88;;;;;;;;;;10423283;28;20028;-80
2023/02/23 08:46:57;;;;;;;27.67;13.20;;;;;;;;;;10385900;28;20502;-81
2023/02/23 08:51:57;;;;;;;23.98;10.75;;;;;;;;;;10370336;28;20032;-80
2023/02/23 08:56:57;;;;;;;22.85;11.40;;;;;;;;;;10386219;28;20024;-78
2023/02/23 09:02:00;;;;;;;25.85;12.27;;;;;;;;;;10362010;28;20029;-73
2023/02/23 09:07:04;;;;;;;26.92;11.98;;;;;;;;;;10401914;28;20048;-79
2023/02/23 09:12:04;;;;;;;23.73;12.20;;;;;;;;;;10381600;28;20022;-79
2023/02/23 09:17:04;;;;;;;27.17;13.37;;;;;;;;;;10388501;28;20127;-75
2023/02/23 09:22:05;;;;;;;32.08;12.15;;;;;;;;;;10382583;28;20275;-77
2023/02/23 09:27:11;;;;;;;32.22;13.38;;;;;;;;;;10375153;28;20124;-79
2023/02/23 09:32:11;;;;;;;28.38;11.50;;;;;;;;;;10353818;28;20045;-79
2023/02/23 09:37:11;;;;;;;21.10;11.00;;;;;;;;;;10391563;28;20519;-80
2023/02/23 09:42:15;;;;;;;16.60;8.85;;;;;;;;;;10391468;28;20014;-78
2023/02/23 09:47:29;;;;;;;24.77;10.68;;;;;;;;;;10389677;28;20132;-80
2023/02/23 09:52:39;;;;;;;20.92;10.13;;;;;;;;;;10377352;28;20033;-79
2023/02/23 09:57:41;;;;;;;28.92;8.77;;;;;;;;;;10379603;28;20096;-75
2023/02/23 10:02:59;;;;;;;13.38;6.47;;;;;;;;;;10399910;28;20018;-77
2023/02/23 10:08:02;;;;;;;17.85;8.52;;;;;;;;;;10379360;28;20111;-79
2023/02/23 10:13:42;;;;;;;14.40;6.88;;;;;;;;;;10390342;28;20033;-76
2023/02/23 10:18:42;;;;;;;13.38;6.90;;;;;;;;;;10225018;29;20034;-79
2023/02/23 10:24:12;;;;;;;11.88;5.95;;;;;;;;;;10331485;28;20029;-78
2023/02/23 10:29:26;;;;;;;10.18;5.75;;;;;;;;;;10370458;28;20124;-76
2023/02/23 10:34:27;;;;;;;11.95;5.75;;;;;;;;;;10406574;28;20029;-83
2023/02/23 10:39:28;;;;;;;15.73;6.43;;;;;;;;;;10388780;28;20029;-78
2023/02/23 10:44:29;;;;;;;14.60;5.65;;;;;;;;;;10390378;28;20014;-80
2023/02/23 10:49:49;;;;;;;12.83;5.73;;;;;;;;;;10363762;28;20018;-74
2023/02/23 10:54:50;;;;;;;11.68;5.20;;;;;;;;;;10370721;28;20070;-78
2023/02/23 11:00:08;;;;;;;11.85;5.15;;;;;;;;;;10375598;28;20022;-82
2023/02/23 11:05:28;;;;;;;12.23;5.00;;;;;;;;;;10387002;28;20462;-79
2023/02/23 11:10:31;;;;;;;11.50;4.30;;;;;;;;;;10370294;28;20054;-78
2023/02/23 11:15:32;;;;;;;10.25;5.07;;;;;;;;;;10405267;28;20029;-73
2023/02/23 11:20:34;;;;;;;14.38;5.93;;;;;;;;;;10397724;28;20022;-78
2023/02/23 11:25:36;;;;;;;11.93;6.10;;;;;;;;;;10345972;28;20059;-77
2023/02/23 11:30:41;;;;;;;12.73;6.25;;;;;;;;;;10393166;28;20022;-76
2023/02/23 11:35:42;;;;;;;9.60;5.25;;;;;;;;;;10365840;28;20032;-78
2023/02/23 11:40:56;;;;;;;12.48;5.10;;;;;;;;;;10364225;28;20414;-75
2023/02/23 11:45:58;;;;;;;15.90;7.57;;;;;;;;;;10385230;28;20373;-74
2023/02/23 11:50:58;;;;;;;15.48;5.60;;;;;;;;;;10385568;28;20651;-76
2023/02/23 11:56:01;;;;;;;8.98;5.20;;;;;;;;;;10372615;28;20028;-75
2023/02/23 12:01:12;;;;;;;7.63;4.57;;;;;;;;;;10409105;28;20028;-77
2023/02/23 12:06:26;;;;;;;9.98;5.80;;;;;;;;;;10397677;28;20064;-83
2023/02/23 12:11:30;;;;;;;19.60;7.03;;;;;;;;;;10396221;28;20478;-82
2023/02/23 12:16:30;;;;;;;15.50;7.50;;;;;;;;;;10364602;28;20053;-81
2023/02/23 12:21:34;;;;;;;12.75;7.10;;;;;;;;;;10398033;28;20022;-75
2023/02/23 12:26:39;;;;;;;17.98;6.72;;;;;;;;;;10401833;28;20029;-83
2023/02/23 12:32:01;;;;;;;27.63;7.93;;;;;;;;;;10376906;28;20057;-80
2023/02/23 12:37:09;;;;;;;20.95;9.15;;;;;;;;;;10409385;28;20025;-77
2023/02/23 12:42:23;;;;;;;22.95;9.90;;;;;;;;;;10385443;28;20116;-77
2023/02/23 12:47:42;;;;;;;13.65;6.47;;;;;;;;;;10372595;28;20037;-82
2023/02/23 12:52:52;;;;;;;16.20;6.25;;;;;;;;;;10375866;28;20025;-81
2023/02/23 12:58:22;;;;;;;14.77;6.38;;;;;;;;;;10402549;28;20130;-76
2023/02/23 13:03:39;;;;;;;18.05;6.28;;;;;;;;;;10401384;28;20084;-71
2023/02/23 13:08:59;;;;;;;13.15;6.88;;;;;;;;;;10433766;28;20057;-81
2023/02/23 13:14:08;;;;;;;15.57;6.60;;;;;;;;;;10439231;28;20029;-76
2023/02/23 13:19:18;;;;;;;24.25;7.40;;;;;;;;;;10456827;28;20029;-78
2023/02/23 13:24:35;;;;;;;15.05;6.82;;;;;;;;;;10429181;28;20041;-74
2023/02/23 13:29:53;;;;;;;10.30;5.57;;;;;;;;;;10407559;28;20044;-70
2023/02/23 13:34:59;;;;;;;15.50;6.47;;;;;;;;;;10374250;28;20202;-80
2023/02/23 13:40:26;;;;;;;17.00;7.30;;;;;;;;;;10387069;28;20028;-81
2023/02/23 13:51:18;;;;;;;14.00;5.05;;;;;;;;;;10420800;28;20034;-75
2023/02/23 13:56:22;;;;;;;15.23;6.20;;;;;;;;;;10385764;28;20029;-77
2023/02/23 14:01:29;;;;;;;12.50;4.82;;;;;;;;;;10386313;28;20393;-80
2023/02/23 14:06:31;;;;;;;11.23;5.43;;;;;;;;;;10395627;28;20833;-77
2023/02/23 14:11:41;;;;;;;9.88;4.70;;;;;;;;;;10362187;28;20117;-76
2023/02/23 14:16:43;;;;;;;17.35;7.10;;;;;;;;;;10393408;28;20032;-75
2023/02/23 14:21:43;;;;;;;9.63;4.30;;;;;;;;;;10399453;28;20095;-78
2023/02/23 14:27:02;;;;;;;11.80;4.50;;;;;;;;;;10406587;28;20059;-78
2023/02/23 14:32:11;;;;;;;12.18;6.10;;;;;;;;;;10389972;28;20108;-80
2023/02/23 14:37:15;;;;;;;12.27;5.13;;;;;;;;;;10406009;28;20033;-78
2023/02/23 14:42:23;;;;;;;13.68;5.30;;;;;;;;;;10405669;28;20033;-79
2023/02/23 14:47:27;;;;;;;10.77;5.30;;;;;;;;;;10406858;28;20021;-79
2023/02/23 14:52:40;;;;;;;10.27;5.10;;;;;;;;;;10386764;28;20563;-82
2023/02/23 14:57:41;;;;;;;9.18;5.15;;;;;;;;;;10396948;28;20026;-81
2023/02/23 15:03:08;;;;;;;9.07;5.60;;;;;;;;;;10390499;28;20442;-79
2023/02/23 15:08:12;;;;;;;12.70;6.40;;;;;;;;;;10415647;28;20057;-72
2023/02/23 15:13:24;;;;;;;19.95;7.50;;;;;;;;;;10409520;28;20025;-73
2023/02/23 15:18:33;;;;;;;11.30;6.90;;;;;;;;;;10372138;28;20029;-80
2023/02/23 15:23:36;;;;;;;11.10;6.68;;;;;;;;;;10377513;28;20121;-73
2023/02/23 15:29:17;;;;;;;14.13;8.45;;;;;;;;;;10389720;28;20041;-80
2023/02/23 15:34:20;;;;;;;12.18;7.70;;;;;;;;;;10380741;28;20037;-78
2023/02/23 15:39:34;;;;;;;16.42;7.80;;;;;;;;;;10398320;28;20074;-76
2023/02/23 15:44:37;;;;;;;12.45;7.38;;;;;;;;;;10362087;28;20437;-82
2023/02/23 15:49:40;;;;;;;15.40;7.95;;;;;;;;;;10397249;28;20586;-80
2023/02/23 15:55:05;;;;;;;15.00;7.53;;;;;;;;;;10377321;28;20365;-78
2023/02/23 16:00:17;;;;;;;12.73;8.10;;;;;;;;;;10396341;28;20447;-74
2023/02/23 16:05:21;;;;;;;17.33;9.25;;;;;;;;;;10390918;28;20044;-77
2023/02/23 16:10:24;;;;;;;18.83;10.35;;;;;;;;;;10387118;28;20049;-75
2023/02/23 16:15:33;;;;;;;52.45;26.73;;;;;;;;;;10397868;28;20375;-85
2023/02/23 16:20:40;;;;;;;23.83;11.68;;;;;;;;;;10385789;28;20033;-81
2023/02/23 16:25:41;;;;;;;15.75;7.90;;;;;;;;;;10378836;28;20515;-80
2023/02/23 16:30:43;;;;;;;23.85;11.25;;;;;;;;;;10397914;28;20025;-81
2023/02/23 16:35:45;;;;;;;20.90;11.25;;;;;;;;;;10401294;28;20030;-77
2023/02/23 16:40:47;;;;;;;20.33;9.43;;;;;;;;;;10357185;28;20041;-78
2023/02/23 16:45:48;;;;;;;19.48;9.35;;;;;;;;;;10382047;28;20056;-74
2023/02/23 16:50:49;;;;;;;15.30;7.43;;;;;;;;;;10385309;28;20033;-75
2023/02/23 16:55:54;;;;;;;15.05;7.00;;;;;;;;;;10371397;28;20029;-80
2023/02/23 17:00:54;;;;;;;15.20;6.90;;;;;;;;;;10370760;28;20041;-79
2023/02/23 17:05:55;;;;;;;13.15;7.43;;;;;;;;;;10367573;28;20034;-76
2023/02/23 17:10:56;;;;;;;13.63;7.33;;;;;;;;;;10358644;28;20053;-81
2023/02/23 17:15:56;;;;;;;16.13;9.07;;;;;;;;;;10372318;28;20071;-79
2023/02/23 17:20:59;;;;;;;16.75;7.90;;;;;;;;;;10363170;28;20036;-81
2023/02/23 17:25:59;;;;;;;17.52;8.02;;;;;;;;;;10352955;28;20150;-71
2023/02/23 17:31:00;;;;;;;14.15;7.82;;;;;;;;;;10385047;28;20089;-78
2023/02/23 17:36:02;;;;;;;20.05;9.10;;;;;;;;;;10386083;28;20484;-79
2023/02/23 17:41:04;;;;;;;17.90;9.70;;;;;;;;;;10377015;28;20170;-76
2023/02/23 17:46:05;;;;;;;24.25;10.95;;;;;;;;;;10366172;28;20084;-74
2023/02/23 17:51:07;;;;;;;23.05;9.82;;;;;;;;;;10368400;28;20038;-74
2023/02/23 17:56:08;;;;;;;34.03;14.85;;;;;;;;;;10367326;28;20088;-75
2023/02/23 18:01:09;;;;;;;30.65;16.77;;;;;;;;;;10379063;28;20491;-74
2023/02/23 18:06:11;;;;;;;26.75;14.02;;;;;;;;;;10366578;28;20029;-80
2023/02/23 18:11:12;;;;;;;37.47;14.85;;;;;;;;;;10372395;28;20046;-80
2023/02/23 18:16:12;;;;;;;30.75;15.65;;;;;;;;;;10380298;28;20025;-83
2023/02/23 18:21:19;;;;;;;30.63;16.23;;;;;;;;;;10378842;28;20022;-76
2023/02/23 18:26:21;;;;;;;34.05;16.33;;;;;;;;;;10356067;28;20501;-75
2023/02/23 18:31:23;;;;;;;36.72;17.10;;;;;;;;;;10378890;28;20522;-80
2023/02/23 18:36:28;;;;;;;28.98;16.40;;;;;;;;;;10376569;28;20028;-72
2023/02/23 18:41:29;;;;;;;31.13;18.30;;;;;;;;;;10381332;28;20017;-80
2023/02/23 18:46:30;;;;;;;31.38;17.80;;;;;;;;;;10364459;28;20020;-75
2023/02/23 18:51:31;;;;;;;34.55;16.67;;;;;;;;;;10372331;28;20024;-74
2023/02/23 18:56:32;;;;;;;31.42;17.58;;;;;;;;;;10400430;28;20014;-78
2023/02/23 19:01:32;;;;;;;34.07;20.80;;;;;;;;;;10373812;28;20400;-80
2023/02/23 19:06:34;;;;;;;43.67;20.50;;;;;;;;;;10371215;28;20120;-76
2023/02/23 19:11:35;;;;;;;35.70;18.83;;;;;;;;;;10378400;28;20068;-76
2023/02/23 19:16:38;;;;;;;44.25;20.08;;;;;;;;;;10367582;28;20034;-82
2023/02/23 19:21:38;;;;;;;38.25;18.75;;;;;;;;;;10380890;28;20067;-73
2023/02/23 19:26:39;;;;;;;34.00;19.10;;;;;;;;;;10373172;28;20041;-75
2023/02/23 19:31:39;;;;;;;40.42;19.48;;;;;;;;;;10404149;28;20029;-80
2023/02/23 19:36:40;;;;;;;35.90;17.20;;;;;;;;;;10383367;28;20029;-75
2023/02/23 19:41:41;;;;;;;37.17;20.02;;;;;;;;;;10365797;28;20071;-73
2023/02/23 19:46:41;;;;;;;41.55;20.15;;;;;;;;;;10372515;28;20528;-77
2023/02/23 19:51:43;;;;;;;43.22;21.15;;;;;;;;;;10361870;28;20179;-75
2023/02/23 19:56:43;;;;;;;50.05;23.85;;;;;;;;;;10353897;28;20157;-80
2023/02/23 20:01:44;;;;;;;41.70;22.23;;;;;;;;;;10383955;28;20036;-76
2023/02/23 20:06:45;;;;;;;40.50;21.48;;;;;;;;;;10350412;28;20132;-74
2023/02/23 20:11:47;;;;;;;47.03;21.35;;;;;;;;;;10362058;28;20538;-75
2023/02/23 20:16:47;;;;;;;46.65;24.90;;;;;;;;;;10373708;28;20439;-77
2023/02/23 20:21:48;;;;;;;62.40;21.73;;;;;;;;;;10362211;28;20025;-76
2023/02/23 20:26:51;;;;;;;51.33;24.48;;;;;;;;;;10361811;28;20091;-77
2023/02/23 20:31:51;;;;;;;46.92;22.85;;;;;;;;;;10376729;28;20071;-78
2023/02/23 20:37:18;;;;;;;50.63;22.47;;;;;;;;;;10372817;28;20558;-79
2023/02/23 20:42:20;;;;;;;48.28;23.58;;;;;;;;;;10360964;28;20272;-79
2023/02/23 20:47:21;;;;;;;57.35;25.00;;;;;;;;;;10365756;28;20080;-77
2023/02/23 20:52:22;;;;;;;47.08;23.13;;;;;;;;;;10365477;28;20079;-79
2023/02/23 20:57:22;;;;;;;57.80;24.33;;;;;;;;;;10365377;28;20056;-80
2023/02/23 21:02:22;;;;;;;50.58;24.05;;;;;;;;;;10388043;28;20399;-79
2023/02/23 21:07:25;;;;;;;49.33;22.17;;;;;;;;;;10379493;28;20144;-78
2023/02/23 21:12:25;;;;;;;55.10;21.50;;;;;;;;;;10373549;28;20033;-82
2023/02/23 21:17:26;;;;;;;43.28;21.20;;;;;;;;;;10391845;28;20694;-81
2023/02/23 21:22:27;;;;;;;55.67;22.80;;;;;;;;;;10361084;28;20495;-76
2023/02/23 21:27:28;;;;;;;55.17;25.05;;;;;;;;;;10394512;28;20037;-78
2023/02/23 21:32:34;;;;;;;57.20;23.35;;;;;;;;;;10389716;28;20108;-79
2023/02/23 21:37:34;;;;;;;44.50;19.70;;;;;;;;;;10376797;28;20040;-76
2023/02/23 21:42:35;;;;;;;45.30;19.37;;;;;;;;;;10364421;28;20036;-75
2023/02/23 21:47:36;;;;;;;48.35;21.67;;;;;;;;;;10375192;28;20526;-75
2023/02/23 21:52:37;;;;;;;57.97;21.52;;;;;;;;;;10382396;28;20009;-79
2023/02/23 21:57:37;;;;;;;58.75;23.70;;;;;;;;;;10383883;28;20029;-77
2023/02/23 22:02:39;;;;;;;47.60;20.43;;;;;;;;;;10397114;28;20104;-71
2023/02/23 22:07:40;;;;;;;51.70;20.35;;;;;;;;;;10387683;28;20297;-81
2023/02/23 22:12:40;;;;;;;42.53;18.15;;;;;;;;;;10364467;28;20486;-73
2023/02/23 22:17:41;;;;;;;47.35;21.15;;;;;;;;;;10365876;28;20029;-81
2023/02/23 22:22:42;;;;;;;45.78;21.17;;;;;;;;;;10327952;28;20026;-81
2023/02/23 22:27:42;;;;;;;41.13;17.77;;;;;;;;;;10339024;28;20030;-77
2023/02/23 22:32:43;;;;;;;35.70;15.90;;;;;;;;;;10341908;28;20084;-80
2023/02/23 22:37:45;;;;;;;38.13;17.93;;;;;;;;;;10330139;28;20134;-78
2023/02/23 22:42:48;;;;;;;36.33;17.58;;;;;;;;;;10367255;28;20378;-77
2023/02/23 22:47:48;;;;;;;43.38;16.58;;;;;;;;;;10348342;28;20026;-77
2023/02/23 22:52:49;;;;;;;39.58;16.88;;;;;;;;;;10348401;28;20022;-79
2023/02/23 22:57:49;;;;;;;31.25;14.95;;;;;;;;;;10349067;28;20033;-74
2023/02/23 23:02:50;;;;;;;31.50;16.02;;;;;;;;;;10365609;28;20021;-74
2023/02/23 23:07:50;;;;;;;27.90;14.40;;;;;;;;;;10366027;28;20049;-79
2023/02/23 23:12:50;;;;;;;29.30;14.10;;;;;;;;;;10375123;28;20040;-80
2023/02/23 23:17:51;;;;;;;27.10;12.43;;;;;;;;;;10405182;28;20071;-78
2023/02/23 23:22:51;;;;;;;30.97;12.60;;;;;;;;;;10388974;28;20498;-81
2023/02/23 23:27:52;;;;;;;23.02;11.27;;;;;;;;;;10373781;28;20027;-80
2023/02/23 23:32:52;;;;;;;22.58;10.05;;;;;;;;;;10374707;28;20419;-79
2023/02/23 23:37:52;;;;;;;18.80;8.45;;;;;;;;;;10393294;28;20018;-79
2023/02/23 23:42:54;;;;;;;22.23;11.10;;;;;;;;;;10394050;28;20045;-76
2023/02/23 23:47:54;;;;;;;23.63;10.68;;;;;;;;;;10408944;28;20048;-75
2023/02/23 23:52:55;;;;;;;26.55;11.18;;;;;;;;;;10387941;28;20558;-76
2023/02/23 23:57:56;;;;;;;34.53;11.10;;;;;;;;;;10385587;28;20021;-79
